createdAt,value
2017-12-22T00:01:33.838Z,6.30
2017-12-22T00:04:00.212Z,6.30
2017-12-22T00:06:26.587Z,6.27
2017-12-22T00:08:52.979Z,6.43
2017-12-22T00:11:20.121Z,5.87
2017-12-22T00:13:47.218Z,6.20
2017-12-22T00:16:13.615Z,7.07
2017-12-22T00:18:40.734Z,5.97
2017-12-22T00:21:07.130Z,7.43
2017-12-22T00:23:33.567Z,7.50
2017-12-22T00:25:59.998Z,6.63
2017-12-22T00:28:26.458Z,6.70
2017-12-22T00:30:52.843Z,7.63
2017-12-22T00:33:19.238Z,8.30
2017-12-22T00:35:45.677Z,7.67
2017-12-22T00:38:12.805Z,7.33
2017-12-22T00:40:39.216Z,6.47
2017-12-22T00:43:05.632Z,8.57
2017-12-22T00:45:32.051Z,7.60
2017-12-22T00:47:59.147Z,7.77
2017-12-22T00:50:25.523Z,7.93
2017-12-22T00:52:51.926Z,8.63
2017-12-22T00:55:18.366Z,7.13
2017-12-22T00:57:46.218Z,7.43
2017-12-22T01:00:12.642Z,7.70
2017-12-22T01:02:39.688Z,7.53
2017-12-22T01:05:06.080Z,6.43
2017-12-22T01:07:32.469Z,7.80
2017-12-22T01:09:58.882Z,7.00
2017-12-22T01:12:25.286Z,6.57
2017-12-22T01:14:51.667Z,6.40
2017-12-22T01:17:25.456Z,6.60
2017-12-22T01:19:51.839Z,6.60
2017-12-22T01:22:18.235Z,6.63
2017-12-22T01:24:44.627Z,6.00
2017-12-22T01:27:11.002Z,6.50
2017-12-22T01:29:38.891Z,7.07
2017-12-22T01:32:06.004Z,6.60
2017-12-22T01:34:32.426Z,6.80
2017-12-22T01:36:58.767Z,6.90
2017-12-22T01:39:25.167Z,6.73
2017-12-22T01:41:51.686Z,7.07
2017-12-22T01:44:18.075Z,6.93
2017-12-22T01:46:44.464Z,7.33
2017-12-22T01:49:10.842Z,6.33
2017-12-22T01:51:37.235Z,8.00
2017-12-22T01:54:03.667Z,7.47
2017-12-22T01:56:30.078Z,6.67
2017-12-22T01:58:56.462Z,7.43
2017-12-22T02:01:22.838Z,8.20
2017-12-22T02:03:49.240Z,7.03
2017-12-22T02:06:15.608Z,7.70
2017-12-22T02:08:41.973Z,8.03
2017-12-22T02:11:08.362Z,7.60
2017-12-22T02:13:35.516Z,8.20
2017-12-22T02:16:01.891Z,8.00
2017-12-22T02:18:28.250Z,8.60
2017-12-22T02:20:55.442Z,9.50
2017-12-22T02:23:21.822Z,7.60
2017-12-22T02:25:49.687Z,8.63
2017-12-22T02:28:17.544Z,8.40
2017-12-22T02:30:43.923Z,10.90
2017-12-22T02:33:10.343Z,10.40
2017-12-22T02:35:37.470Z,10.40
2017-12-22T02:38:03.869Z,10.53
2017-12-22T02:40:30.267Z,10.30
2017-12-22T02:42:57.367Z,11.47
2017-12-22T02:45:23.786Z,13.03
2017-12-22T02:47:50.235Z,10.40
2017-12-22T02:50:16.667Z,10.50
2017-12-22T02:52:43.056Z,11.13
2017-12-22T02:55:09.435Z,13.30
2017-12-22T02:57:35.840Z,11.47
2017-12-22T03:00:02.279Z,12.07
2017-12-22T03:02:28.649Z,14.33
2017-12-22T03:04:55.764Z,13.17
2017-12-22T03:07:22.143Z,10.03
2017-12-22T03:09:49.280Z,8.43
2017-12-22T03:12:15.687Z,8.90
2017-12-22T03:14:42.100Z,8.50
2017-12-22T03:17:08.504Z,8.80
2017-12-22T03:19:34.892Z,8.97
2017-12-22T03:22:01.332Z,7.43
2017-12-22T03:24:27.690Z,8.90
2017-12-22T03:26:54.802Z,7.97
2017-12-22T03:29:21.935Z,8.53
2017-12-22T03:31:48.323Z,8.97
2017-12-22T03:34:14.763Z,8.73
2017-12-22T03:36:41.854Z,10.13
2017-12-22T03:39:09.746Z,8.57
2017-12-22T03:41:36.910Z,10.93
2017-12-22T03:44:04.049Z,10.80
2017-12-22T03:46:31.251Z,10.97
2017-12-22T03:48:57.622Z,12.17
2017-12-22T03:51:24.751Z,11.40
2017-12-22T03:53:51.201Z,15.50
2017-12-22T03:56:17.598Z,17.53
2017-12-22T03:58:44.050Z,15.83
2017-12-22T04:01:10.456Z,13.60
2017-12-22T04:03:36.995Z,15.50
2017-12-22T04:06:03.406Z,14.63
2017-12-22T04:08:29.802Z,12.60
2017-12-22T04:10:56.165Z,12.93
2017-12-22T04:13:23.295Z,13.60
2017-12-22T04:15:49.671Z,13.63
2017-12-22T04:18:16.061Z,14.60
2017-12-22T04:20:43.178Z,13.70
2017-12-22T04:23:09.533Z,13.50
2017-12-22T04:25:36.642Z,13.87
2017-12-22T04:28:03.047Z,14.47
2017-12-22T04:30:29.440Z,13.30
2017-12-22T04:32:55.817Z,12.90
2017-12-22T04:35:22.240Z,13.93
2017-12-22T04:37:48.674Z,14.90
2017-12-22T04:40:15.075Z,16.70
2017-12-22T04:42:42.190Z,20.27
2017-12-22T04:45:08.605Z,13.30
2017-12-22T04:47:35.011Z,15.83
2017-12-22T04:50:02.323Z,15.63
2017-12-22T04:52:28.709Z,14.53
2017-12-22T04:54:55.092Z,15.23
2017-12-22T04:57:21.457Z,16.10
2017-12-22T04:59:48.578Z,14.40
2017-12-22T05:02:14.962Z,15.40
2017-12-22T05:04:41.364Z,15.03
2017-12-22T05:07:08.618Z,13.10
2017-12-22T05:09:35.033Z,12.30
2017-12-22T05:12:02.186Z,12.60
2017-12-22T05:14:29.317Z,12.10
2017-12-22T05:16:55.693Z,10.83
2017-12-22T05:19:22.058Z,11.00
2017-12-22T05:21:48.457Z,10.33
2017-12-22T05:24:14.820Z,10.93
2017-12-22T05:26:41.184Z,11.73
2017-12-22T05:29:07.574Z,10.73
2017-12-22T05:31:33.979Z,10.23
2017-12-22T05:34:00.370Z,11.10
2017-12-22T05:36:26.769Z,9.10
2017-12-22T05:38:53.141Z,10.00
2017-12-22T05:41:19.512Z,10.40
2017-12-22T05:43:45.878Z,10.07
2017-12-22T05:46:12.280Z,11.50
2017-12-22T05:48:38.716Z,11.57
2017-12-22T05:51:05.119Z,10.03
2017-12-22T05:53:32.250Z,11.40
2017-12-22T05:55:58.611Z,12.50
2017-12-22T05:58:25.718Z,13.57
2017-12-22T06:00:52.132Z,9.20
2017-12-22T06:03:18.538Z,9.57
2017-12-22T06:05:44.912Z,11.10
2017-12-22T06:08:11.310Z,9.43
2017-12-22T06:10:37.740Z,9.27
2017-12-22T06:13:04.124Z,8.80
2017-12-22T06:15:30.532Z,8.97
2017-12-22T06:17:56.914Z,9.67
2017-12-22T06:20:23.312Z,9.47
2017-12-22T06:22:50.475Z,8.60
2017-12-22T06:25:17.605Z,8.97
2017-12-22T06:27:44.055Z,8.13
2017-12-22T06:30:11.184Z,8.37
2017-12-22T06:32:38.396Z,7.67
2017-12-22T06:35:04.839Z,8.03
2017-12-22T06:37:31.227Z,8.20
2017-12-22T06:39:58.363Z,8.07
2017-12-22T06:42:24.754Z,7.90
2017-12-22T06:44:51.884Z,7.40
2017-12-22T06:47:18.377Z,7.50
2017-12-22T06:49:44.827Z,8.70
2017-12-22T06:52:11.953Z,8.20
2017-12-22T06:54:38.368Z,7.70
2017-12-22T06:57:04.822Z,7.57
2017-12-22T06:59:31.202Z,8.63
2017-12-22T07:01:57.580Z,7.87
2017-12-22T07:04:24.017Z,9.10
2017-12-22T07:06:51.894Z,8.47
2017-12-22T07:09:18.282Z,9.63
2017-12-22T07:11:44.734Z,9.27
2017-12-22T07:14:11.132Z,10.67
2017-12-22T07:16:38.273Z,9.67
2017-12-22T07:19:05.430Z,8.50
2017-12-22T07:21:31.818Z,10.70
2017-12-22T07:23:58.971Z,10.40
2017-12-22T07:26:25.460Z,11.10
2017-12-22T07:28:51.869Z,11.87
2017-12-22T07:31:18.289Z,13.40
2017-12-22T07:33:45.398Z,13.20
2017-12-22T07:36:11.802Z,11.13
2017-12-22T07:38:38.188Z,12.73
2017-12-22T07:41:06.088Z,11.93
2017-12-22T07:43:32.516Z,11.40
2017-12-22T07:45:58.922Z,12.37
2017-12-22T07:48:25.377Z,11.90
2017-12-22T07:50:52.538Z,11.07
2017-12-22T07:53:18.923Z,11.47
2017-12-22T07:55:45.316Z,10.47
2017-12-22T07:58:11.757Z,11.13
2017-12-22T08:00:38.175Z,11.73
2017-12-22T08:03:04.595Z,11.30
2017-12-22T08:05:30.995Z,10.87
2017-12-22T08:07:57.459Z,13.17
2017-12-22T08:10:24.610Z,13.10
2017-12-22T08:12:51.730Z,12.40
2017-12-22T08:15:19.578Z,12.77
2017-12-22T08:17:45.978Z,12.30
2017-12-22T08:20:12.360Z,14.67
2017-12-22T08:22:38.920Z,11.00
2017-12-22T08:25:06.052Z,11.30
2017-12-22T08:27:33.175Z,12.07
2017-12-22T08:30:00.310Z,10.97
2017-12-22T08:32:27.382Z,10.67
2017-12-22T08:34:54.526Z,10.70
2017-12-22T08:37:20.929Z,10.40
2017-12-22T08:39:48.054Z,10.47
2017-12-22T08:42:15.174Z,11.00
2017-12-22T08:44:41.573Z,10.80
2017-12-22T08:47:08.020Z,10.60
2017-12-22T08:49:34.400Z,11.23
2017-12-22T08:52:00.786Z,10.87
2017-12-22T08:54:27.232Z,13.30
2017-12-22T08:56:53.609Z,15.37
2017-12-22T08:59:19.970Z,13.10
2017-12-22T09:01:46.380Z,14.00
2017-12-22T09:04:12.766Z,12.90
2017-12-22T09:06:39.152Z,9.20
2017-12-22T09:09:05.544Z,9.70
2017-12-22T09:11:32.685Z,10.23
2017-12-22T09:13:59.885Z,9.43
2017-12-22T09:16:26.346Z,8.60
2017-12-22T09:18:53.573Z,9.07
2017-12-22T09:21:20.057Z,9.40
2017-12-22T09:23:47.265Z,9.20
2017-12-22T09:26:13.709Z,8.50
2017-12-22T09:28:40.115Z,9.60
2017-12-22T09:31:06.506Z,9.97
2017-12-22T09:33:33.646Z,12.50
2017-12-22T09:36:00.793Z,9.57
2017-12-22T09:38:27.936Z,10.17
2017-12-22T09:40:55.813Z,9.03
2017-12-22T09:43:22.954Z,13.43
2017-12-22T09:45:49.373Z,11.97
2017-12-22T09:48:15.756Z,13.07
2017-12-22T09:50:42.133Z,14.97
2017-12-22T09:53:08.512Z,13.17
2017-12-22T09:55:34.899Z,13.40
2017-12-22T09:58:01.300Z,11.30
2017-12-22T10:00:27.710Z,11.90
2017-12-22T10:02:54.846Z,12.23
2017-12-22T10:05:21.954Z,12.17
2017-12-22T10:07:48.341Z,12.20
2017-12-22T10:10:14.771Z,11.90
2017-12-22T10:12:41.204Z,9.93
2017-12-22T10:15:08.324Z,11.00
2017-12-22T10:17:34.711Z,9.57
2017-12-22T10:20:01.085Z,9.33
2017-12-22T10:22:28.950Z,10.40
2017-12-22T10:24:55.368Z,9.47
2017-12-22T10:27:21.784Z,9.67
2017-12-22T10:29:48.172Z,8.20
2017-12-22T10:32:15.302Z,8.80
2017-12-22T10:34:43.174Z,8.20
2017-12-22T10:37:10.311Z,8.17
2017-12-22T10:39:37.350Z,9.23
2017-12-22T10:42:03.788Z,9.10
2017-12-22T10:44:30.178Z,8.80
2017-12-22T10:46:56.566Z,9.43
2017-12-22T10:49:23.019Z,9.20
2017-12-22T10:51:49.437Z,10.43
2017-12-22T10:54:16.558Z,11.30
2017-12-22T10:56:42.926Z,8.93
2017-12-22T10:59:10.061Z,10.70
2017-12-22T11:01:36.487Z,9.10
2017-12-22T11:04:02.914Z,7.73
2017-12-22T11:06:30.802Z,9.77
2017-12-22T11:08:57.934Z,8.20
2017-12-22T11:11:25.803Z,9.03
2017-12-22T11:13:52.899Z,9.20
2017-12-22T11:16:19.286Z,6.67
2017-12-22T11:18:47.146Z,6.50
2017-12-22T11:21:13.636Z,6.80
2017-12-22T11:23:39.999Z,6.93
2017-12-22T11:26:06.379Z,6.37
2017-12-22T11:28:32.748Z,7.10
2017-12-22T11:30:59.146Z,7.67
2017-12-22T11:33:25.523Z,7.00
2017-12-22T11:35:51.905Z,5.90
2017-12-22T11:38:19.032Z,7.20
2017-12-22T11:40:46.167Z,7.13
2017-12-22T11:43:12.543Z,6.03
2017-12-22T11:45:38.954Z,6.87
2017-12-22T11:48:06.869Z,6.13
2017-12-22T11:50:33.256Z,6.00
2017-12-22T11:53:00.431Z,6.43
2017-12-22T11:55:26.851Z,7.13
2017-12-22T11:57:53.248Z,9.57
2017-12-22T12:00:19.663Z,9.70
2017-12-22T12:02:46.048Z,9.23
2017-12-22T12:05:12.418Z,10.57
2017-12-22T12:07:38.787Z,7.40
2017-12-22T12:10:05.891Z,6.97
2017-12-22T12:12:32.257Z,7.40
2017-12-22T12:15:00.120Z,6.40
2017-12-22T12:17:27.500Z,7.20
2017-12-22T12:19:54.622Z,8.00
2017-12-22T12:22:22.497Z,7.70
2017-12-22T12:24:48.940Z,7.80
2017-12-22T12:27:16.115Z,9.13
2017-12-22T12:29:42.494Z,9.33
2017-12-22T12:32:08.873Z,9.50
2017-12-22T12:34:36.002Z,8.70
2017-12-22T12:37:02.410Z,9.10
2017-12-22T12:39:28.837Z,8.10
2017-12-22T12:41:55.240Z,8.83
2017-12-22T12:44:21.669Z,9.50
2017-12-22T12:46:48.083Z,10.03
2017-12-22T12:49:14.480Z,12.47
2017-12-22T12:51:42.360Z,10.23
2017-12-22T12:54:08.751Z,11.00
2017-12-22T12:56:35.217Z,9.47
2017-12-22T12:59:01.607Z,11.97
2017-12-22T13:01:28.011Z,10.30
2017-12-22T13:03:54.410Z,11.90
2017-12-22T13:06:21.563Z,11.47
2017-12-22T13:08:49.444Z,10.13
2017-12-22T13:11:16.585Z,10.60
2017-12-22T13:13:43.720Z,11.57
2017-12-22T13:16:10.091Z,9.37
2017-12-22T13:18:36.476Z,9.33
2017-12-22T13:21:03.776Z,8.97
2017-12-22T13:23:30.167Z,10.00
2017-12-22T13:25:56.563Z,9.77
2017-12-22T13:28:22.947Z,9.27
2017-12-22T13:30:50.148Z,10.00
2017-12-22T13:33:16.556Z,10.63
2017-12-22T13:35:43.185Z,11.03
2017-12-22T13:38:10.315Z,11.27
2017-12-22T13:40:39.198Z,12.00
2017-12-22T13:43:06.448Z,12.83
2017-12-22T13:45:34.307Z,13.40
2017-12-22T13:48:00.745Z,13.30
2017-12-22T13:50:28.139Z,12.80
2017-12-22T13:52:56.325Z,12.97
2017-12-22T13:55:22.714Z,14.10
2017-12-22T13:57:50.613Z,15.10
2017-12-22T14:00:17.014Z,13.30
2017-12-22T14:02:47.766Z,12.37
2017-12-22T14:05:14.894Z,12.00
2017-12-22T14:07:41.322Z,11.83
2017-12-22T14:10:07.862Z,12.33
2017-12-22T14:12:34.590Z,11.93
2017-12-22T14:15:00.997Z,11.20
2017-12-22T14:17:27.335Z,12.47
2017-12-22T14:19:53.711Z,13.87
2017-12-22T14:22:20.100Z,11.73
2017-12-22T14:24:46.470Z,11.50
2017-12-22T14:27:14.561Z,11.93
2017-12-22T14:29:41.684Z,10.60
2017-12-22T14:32:08.378Z,12.27
2017-12-22T14:34:34.762Z,11.20
2017-12-22T14:37:01.890Z,11.23
2017-12-22T14:39:28.335Z,10.50
2017-12-22T14:41:55.460Z,10.57
2017-12-22T14:44:21.939Z,11.47
2017-12-22T14:46:49.074Z,12.60
2017-12-22T14:49:16.188Z,10.57
2017-12-22T14:51:42.583Z,10.50
2017-12-22T14:54:08.978Z,11.70
2017-12-22T14:56:36.127Z,12.07
2017-12-22T14:59:03.271Z,12.30
2017-12-22T15:01:31.147Z,10.80
2017-12-22T15:03:57.623Z,11.97
2017-12-22T15:06:24.036Z,12.30
2017-12-22T15:08:51.200Z,11.43
2017-12-22T15:11:17.631Z,12.00
2017-12-22T15:13:44.038Z,11.90
2017-12-22T15:16:11.211Z,13.13
2017-12-22T15:18:38.330Z,12.83
2017-12-22T15:21:05.491Z,14.17
2017-12-22T15:23:32.646Z,14.10
2017-12-22T15:25:59.794Z,14.17
2017-12-22T15:28:26.969Z,15.30
2017-12-22T15:30:53.500Z,12.30
2017-12-22T15:33:19.949Z,14.50
2017-12-22T15:35:46.358Z,13.87
2017-12-22T15:38:12.772Z,13.17
2017-12-22T15:40:39.956Z,14.70
2017-12-22T15:43:06.385Z,14.13
2017-12-22T15:45:32.818Z,15.10
2017-12-22T15:47:59.925Z,14.70
2017-12-22T15:50:26.309Z,14.63
2017-12-22T15:52:52.698Z,15.13
2017-12-22T15:55:19.088Z,15.47
2017-12-22T15:57:45.490Z,16.83
2017-12-22T16:00:11.869Z,17.90
2017-12-22T16:02:38.269Z,16.07
2017-12-22T16:05:04.695Z,17.20
2017-12-22T16:07:31.116Z,16.00
2017-12-22T16:09:57.580Z,18.00
2017-12-22T16:12:24.006Z,16.97
2017-12-22T16:14:50.420Z,15.17
2017-12-22T16:17:16.814Z,17.20
2017-12-22T16:19:45.659Z,16.47
2017-12-22T16:22:12.097Z,16.33
2017-12-22T16:24:38.619Z,17.00
2017-12-22T16:27:05.019Z,17.07
2017-12-22T16:29:32.164Z,17.63
2017-12-22T16:31:59.279Z,15.57
2017-12-22T16:34:25.642Z,17.63
2017-12-22T16:36:52.028Z,15.60
2017-12-22T16:39:18.410Z,18.37
2017-12-22T16:41:45.546Z,16.10
2017-12-22T16:44:11.926Z,16.63
2017-12-22T16:46:38.386Z,16.40
2017-12-22T16:49:04.789Z,16.37
2017-12-22T16:51:31.153Z,17.10
2017-12-22T16:53:57.519Z,17.73
2017-12-22T16:56:25.462Z,19.00
2017-12-22T16:58:52.020Z,17.87
2017-12-22T17:01:19.275Z,17.30
2017-12-22T17:03:46.399Z,18.00
2017-12-22T17:06:12.774Z,19.73
2017-12-22T17:08:39.906Z,17.53
2017-12-22T17:11:07.060Z,18.10
2017-12-22T17:13:34.193Z,18.43
2017-12-22T17:16:01.384Z,19.90
2017-12-22T17:18:27.856Z,19.07
2017-12-22T17:20:54.234Z,20.03
2017-12-22T17:23:20.634Z,19.50
2017-12-22T17:25:47.798Z,19.20
2017-12-22T17:28:15.646Z,20.40
2017-12-22T17:30:42.041Z,17.33
2017-12-22T17:33:08.411Z,18.57
2017-12-22T17:35:34.815Z,18.53
2017-12-22T17:38:01.208Z,21.30
2017-12-22T17:40:28.343Z,18.50
2017-12-22T17:42:54.768Z,16.93
2017-12-22T17:45:21.155Z,16.33
2017-12-22T17:47:47.686Z,16.77
2017-12-22T17:50:14.087Z,15.70
2017-12-22T17:52:40.559Z,16.87
2017-12-22T17:55:06.943Z,16.20
2017-12-22T17:57:34.075Z,18.50
2017-12-22T18:00:01.967Z,16.40
2017-12-22T18:02:29.103Z,17.53
2017-12-22T18:04:56.252Z,17.30
2017-12-22T18:07:22.686Z,17.17
2017-12-22T18:09:49.119Z,17.40
2017-12-22T18:12:16.270Z,17.10
2017-12-22T18:14:42.660Z,17.00
2017-12-22T18:17:09.059Z,18.00
2017-12-22T18:19:35.524Z,18.87
2017-12-22T18:22:01.925Z,17.30
2017-12-22T18:24:29.234Z,19.47
2017-12-22T18:26:55.625Z,18.10
2017-12-22T18:29:22.032Z,19.03
2017-12-22T18:31:48.438Z,19.80
2017-12-22T18:34:14.828Z,16.20
2017-12-22T18:36:41.223Z,17.33
2017-12-22T18:39:08.365Z,18.27
2017-12-22T18:41:35.498Z,19.03
2017-12-22T18:44:03.383Z,16.67
2017-12-22T18:46:30.512Z,18.20
2017-12-22T18:48:56.967Z,16.63
2017-12-22T18:51:24.096Z,16.60
2017-12-22T18:53:51.960Z,18.00
2017-12-22T18:56:18.346Z,16.50
2017-12-22T18:58:44.722Z,14.90
2017-12-22T19:01:11.130Z,17.07
2017-12-22T19:03:37.529Z,16.83
2017-12-22T19:06:04.723Z,15.57
2017-12-22T19:08:31.093Z,17.83
2017-12-22T19:10:58.234Z,17.30
2017-12-22T19:13:25.422Z,17.77
2017-12-22T19:15:51.793Z,19.10
2017-12-22T19:18:18.188Z,18.53
2017-12-22T19:20:44.583Z,17.30
2017-12-22T19:23:11.694Z,18.83
2017-12-22T19:25:38.171Z,18.40
2017-12-22T19:28:05.527Z,18.73
2017-12-22T19:30:32.668Z,18.93
2017-12-22T19:33:00.531Z,19.20
2017-12-22T19:35:26.975Z,18.13
2017-12-22T19:37:54.095Z,18.50
2017-12-22T19:40:21.250Z,18.30
2017-12-22T19:42:47.671Z,18.50
2017-12-22T19:45:14.083Z,18.60
2017-12-22T19:47:40.471Z,18.30
2017-12-22T19:50:07.573Z,17.77
2017-12-22T19:52:34.716Z,17.90
2017-12-22T19:55:01.206Z,17.20
2017-12-22T19:57:29.321Z,18.67
2017-12-22T19:59:55.806Z,16.87
2017-12-22T20:02:22.944Z,17.63
2017-12-22T20:04:49.555Z,19.40
2017-12-22T20:07:16.028Z,16.80
2017-12-22T20:09:43.168Z,16.47
2017-12-22T20:12:09.583Z,15.60
2017-12-22T20:14:36.009Z,16.63
2017-12-22T20:17:03.894Z,15.43
2017-12-22T20:19:30.287Z,14.63
2017-12-22T20:21:56.693Z,15.50
2017-12-22T20:24:24.627Z,16.27
2017-12-22T20:26:52.505Z,14.67
2017-12-22T20:29:19.703Z,15.50
2017-12-22T20:31:46.076Z,15.17
2017-12-22T20:34:13.998Z,17.00
2017-12-22T20:36:40.384Z,14.97
2017-12-22T20:39:06.780Z,15.27
2017-12-22T20:41:33.150Z,14.00
2017-12-22T20:43:59.555Z,14.00
2017-12-22T20:46:25.993Z,15.00
2017-12-22T20:48:52.371Z,14.40
2017-12-22T20:51:18.804Z,15.97
2017-12-22T20:53:45.187Z,15.07
2017-12-22T20:56:13.137Z,14.10
2017-12-22T20:58:39.926Z,16.30
2017-12-22T21:01:07.098Z,15.10
2017-12-22T21:03:34.214Z,15.80
2017-12-22T21:06:01.341Z,13.77
2017-12-22T21:08:27.737Z,14.60
2017-12-22T21:10:54.154Z,13.90
2017-12-22T21:13:21.268Z,15.80
2017-12-22T21:15:47.679Z,14.60
2017-12-22T21:18:14.075Z,14.60
2017-12-22T21:20:40.451Z,15.30
2017-12-22T21:23:06.864Z,15.17
2017-12-22T21:25:33.279Z,15.30
2017-12-22T21:27:59.686Z,14.37
2017-12-22T21:30:26.873Z,13.87
2017-12-22T21:32:53.315Z,14.70
2017-12-22T21:35:19.701Z,14.47
2017-12-22T21:37:46.816Z,13.40
2017-12-22T21:40:13.219Z,13.30
2017-12-22T21:42:39.603Z,13.30
2017-12-22T21:45:06.716Z,12.40
2017-12-22T21:47:34.708Z,13.20
2017-12-22T21:50:01.118Z,12.73
2017-12-22T21:52:27.510Z,12.77
2017-12-22T21:54:54.640Z,13.50
2017-12-22T21:57:21.798Z,13.43
2017-12-22T21:59:48.928Z,13.20
2017-12-22T22:02:16.098Z,12.10
2017-12-22T22:04:43.238Z,14.30
2017-12-22T22:07:10.377Z,14.00
2017-12-22T22:09:38.244Z,14.70
2017-12-22T22:12:05.382Z,13.67
2017-12-22T22:14:32.546Z,14.47
2017-12-22T22:16:58.918Z,15.23
2017-12-22T22:19:25.291Z,15.93
2017-12-22T22:21:51.678Z,14.70
2017-12-22T22:24:18.040Z,14.87
2017-12-22T22:26:44.410Z,13.97
2017-12-22T22:29:11.524Z,14.47
2017-12-22T22:31:37.876Z,12.80
2017-12-22T22:34:05.744Z,14.53
2017-12-22T22:36:33.623Z,13.30
2017-12-22T22:39:00.742Z,12.10
2017-12-22T22:41:27.124Z,13.53
2017-12-22T22:43:53.682Z,14.03
2017-12-22T22:46:20.091Z,13.63
2017-12-22T22:48:46.453Z,13.40
2017-12-22T22:51:12.904Z,14.10
2017-12-22T22:53:39.283Z,15.87
2017-12-22T22:56:06.414Z,13.43
2017-12-22T22:58:33.564Z,14.93
2017-12-22T23:00:59.944Z,13.80
2017-12-22T23:03:26.331Z,13.27
2017-12-22T23:05:53.610Z,12.33
2017-12-22T23:08:19.995Z,13.00
2017-12-22T23:10:46.382Z,13.10
2017-12-22T23:13:13.519Z,13.57
2017-12-22T23:15:40.634Z,12.60
2017-12-22T23:18:07.781Z,13.10
2017-12-22T23:20:34.898Z,13.80
2017-12-22T23:23:01.258Z,13.67
2017-12-22T23:25:27.639Z,14.13
2017-12-22T23:27:54.002Z,13.60
2017-12-22T23:30:20.379Z,13.30
2017-12-22T23:32:47.526Z,13.30
2017-12-22T23:35:14.634Z,11.90
2017-12-22T23:37:41.018Z,14.07
2017-12-22T23:40:08.145Z,12.00
2017-12-22T23:42:36.020Z,11.27
2017-12-22T23:45:03.158Z,11.87
2017-12-22T23:47:31.080Z,13.43
2017-12-22T23:49:57.458Z,14.53
2017-12-22T23:52:25.295Z,14.13
2017-12-22T23:54:52.466Z,14.20
2017-12-22T23:57:18.846Z,12.70
2017-12-22T23:59:45.316Z,14.07
